Worcester, MA

10:44 PM EDT on September 03, 2015 (GMT -0400)
Thornton Rd. | | Change Station
CLOSE
Current Station
Personal Weather Station
Location: Worcester, MA
Elevation: 656 ft
Nearby Weather Stations

Elev 656 ft 42.30 °N, 71.79 °W | Updated 34 seconds ago

Rain
Rain
71.1 °F
Feels Like 74 °F
N
2.2
Wind Variable Wind from East
Gusts 3.8 mph

Today
High -- | Low -- °F
--% Chance of Precip.
Yesterday
High -- | Low -- °F
Precip. -- in
6:14 AM 7:18 PM
Waning Gibbous, 64% visible
Pressure 29.95 in
Visibility 10.0 miles
Clouds Scattered Clouds 4200 ft
Heat Index 74 °F
Dew Point 60 °F
Humidity 69%
Rainfall 0.14 in
Snow Depth Not available.
UV 0 out of 12
Pollen 8.70 out of 12
Air Quality Not available.
Flu Activity Not available.
SPECI KORH 040225Z AUTO 10004KT 10SM SCT042 24/18 A2995 RMK AO2 LTG DSNT E TSE21 T02440178
Pressure 29.95 in
Visibility 10.0 miles
Clouds Scattered Clouds 4200 ft
Heat Index 74 °F
Dew Point 60 °F
Humidity 69%
Rainfall 0.14 in
Snow Depth Not available.
UV 0 out of 12
Pollen 8.70 out of 12
Air Quality Not available.
Flu Activity Not available.
SPECI KORH 040225Z AUTO 10004KT 10SM SCT042 24/18 A2995 RMK AO2 LTG DSNT E TSE21 T02440178

10-Day Weather Forecast

×

Almanac

Astronomy

Sep. 03, 2015 Rise Set
Actual Time
Civil Twilight
Nautical Twilight
Astronomical Twilight
Moon
Length of Visible Light
Length of Day
Tomorrow will be .
, % of the Moon is Illuminated

Today's Extremes

State Highs State Lows

Community

WunderPhotos

Upload Photos

1,852,106 photos uploaded!

WunderBlogs® & News

Nearby

Air Quality

  Air Quality AQ Index Pollutant
Not available.

Snow Depth

Station Depth Elevation

Earthquake Activity

City Distance Mag. Time & Date
Minimum magnitude displayed is 2.5.

Coastal Water Temperatures

Place Temperature

Stations

Nearby Weather Stations

Station Location Temp. Windchill Dew Point Humidity Wind Precip. Elev Updated Type